createdAt,value
2023-02-06T00:00:39.000Z,0
2023-02-06T00:01:55.000Z,0
2023-02-06T00:03:11.000Z,0
2023-02-06T00:04:28.000Z,0
2023-02-06T00:05:44.000Z,0
2023-02-06T00:07:01.000Z,0
2023-02-06T00:08:17.000Z,0
2023-02-06T00:09:34.000Z,0
2023-02-06T00:10:50.000Z,0
2023-02-06T00:12:07.000Z,0
2023-02-06T00:13:23.000Z,0
2023-02-06T00:14:40.000Z,0
2023-02-06T00:15:56.000Z,0
2023-02-06T00:17:13.000Z,0
2023-02-06T00:18:29.000Z,0
2023-02-06T00:19:45.000Z,0
2023-02-06T00:21:01.000Z,0
2023-02-06T00:22:18.000Z,0
2023-02-06T00:23:34.000Z,0
2023-02-06T00:24:51.000Z,0
2023-02-06T00:26:07.000Z,0
2023-02-06T00:27:24.000Z,0
2023-02-06T00:28:40.000Z,0
2023-02-06T00:29:57.000Z,0
2023-02-06T00:31:13.000Z,0
2023-02-06T00:32:30.000Z,0
2023-02-06T00:33:46.000Z,0
2023-02-06T00:35:03.000Z,0
2023-02-06T00:36:19.000Z,0
2023-02-06T00:37:35.000Z,0
2023-02-06T00:38:51.000Z,0
2023-02-06T00:40:08.000Z,0
2023-02-06T00:41:24.000Z,0
2023-02-06T00:42:41.000Z,0
2023-02-06T00:43:57.000Z,0
2023-02-06T00:45:14.000Z,0
2023-02-06T00:46:30.000Z,0
2023-02-06T00:47:47.000Z,0
2023-02-06T00:49:03.000Z,0
2023-02-06T00:50:20.000Z,0
2023-02-06T00:51:36.000Z,0
2023-02-06T00:52:53.000Z,0
2023-02-06T00:54:09.000Z,0
2023-02-06T00:55:26.000Z,0
2023-02-06T00:56:41.000Z,0
2023-02-06T00:57:58.000Z,0
2023-02-06T00:59:14.000Z,0
2023-02-06T01:00:31.000Z,0
2023-02-06T01:01:47.000Z,0
2023-02-06T01:03:04.000Z,0
2023-02-06T01:04:20.000Z,0
2023-02-06T01:05:37.000Z,0
2023-02-06T01:06:53.000Z,0
2023-02-06T01:08:10.000Z,0
2023-02-06T01:09:26.000Z,0
2023-02-06T01:10:43.000Z,0
2023-02-06T01:11:59.000Z,0
2023-02-06T01:13:16.000Z,0
2023-02-06T01:14:32.000Z,0
2023-02-06T01:15:49.000Z,0
2023-02-06T01:17:04.000Z,0
2023-02-06T01:18:21.000Z,0
2023-02-06T01:19:37.000Z,0
2023-02-06T01:20:54.000Z,0
2023-02-06T01:22:10.000Z,0
2023-02-06T01:23:27.293Z,0
2023-02-06T01:24:43.000Z,0
2023-02-06T01:26:00.000Z,0
2023-02-06T01:27:16.000Z,0
2023-02-06T01:28:33.000Z,0
2023-02-06T01:29:49.000Z,0
2023-02-06T01:31:06.000Z,0
2023-02-06T01:32:22.000Z,0
2023-02-06T01:33:39.000Z,0
2023-02-06T01:34:55.000Z,0
2023-02-06T01:36:12.000Z,0
2023-02-06T01:37:27.000Z,0
2023-02-06T01:38:44.000Z,0
2023-02-06T01:40:00.000Z,0
2023-02-06T01:41:17.000Z,0
2023-02-06T01:42:33.000Z,0
2023-02-06T01:43:50.000Z,0
2023-02-06T01:45:06.000Z,0
2023-02-06T01:46:23.000Z,0
2023-02-06T01:47:39.000Z,0
2023-02-06T01:48:56.000Z,0
2023-02-06T01:50:12.000Z,0
2023-02-06T01:51:29.000Z,0
2023-02-06T01:52:45.000Z,0
2023-02-06T01:54:02.000Z,0
2023-02-06T01:55:17.000Z,0
2023-02-06T01:56:33.000Z,0
2023-02-06T01:57:50.000Z,0
2023-02-06T01:59:06.000Z,0
2023-02-06T02:00:23.000Z,0
2023-02-06T02:01:39.000Z,0
2023-02-06T02:02:56.000Z,0
2023-02-06T02:04:12.000Z,0
2023-02-06T02:05:28.000Z,0
2023-02-06T02:06:45.000Z,0
2023-02-06T02:08:01.000Z,0
2023-02-06T02:09:18.000Z,0
2023-02-06T02:10:34.000Z,0
2023-02-06T02:11:51.000Z,0
2023-02-06T02:13:07.000Z,0
2023-02-06T02:14:23.000Z,0
2023-02-06T02:15:40.000Z,0
2023-02-06T02:16:56.000Z,0
2023-02-06T02:18:13.000Z,0
2023-02-06T02:19:29.000Z,0
2023-02-06T02:20:46.000Z,0
2023-02-06T02:22:02.000Z,0
2023-02-06T02:23:18.000Z,0
2023-02-06T02:24:35.000Z,0
2023-02-06T02:25:51.000Z,0
2023-02-06T02:27:08.000Z,0
2023-02-06T02:28:24.000Z,0
2023-02-06T02:29:41.000Z,0
2023-02-06T02:30:57.000Z,0
2023-02-06T02:32:13.000Z,0
2023-02-06T02:33:30.000Z,0
2023-02-06T02:36:03.000Z,0
2023-02-06T02:37:19.000Z,0
2023-02-06T02:38:35.000Z,0
2023-02-06T02:39:52.000Z,0
2023-02-06T02:41:08.000Z,0
2023-02-06T02:42:25.000Z,0
2023-02-06T02:43:41.000Z,0
2023-02-06T02:44:58.000Z,0
2023-02-06T02:46:14.000Z,0
2023-02-06T02:47:31.000Z,0
2023-02-06T02:48:47.000Z,0
2023-02-06T02:50:04.000Z,0
2023-02-06T02:51:20.000Z,0
2023-02-06T02:52:36.000Z,0
2023-02-06T02:53:53.000Z,0
2023-02-06T02:55:09.000Z,0
2023-02-06T02:56:25.000Z,0
2023-02-06T02:57:42.000Z,0
2023-02-06T02:58:58.000Z,0
2023-02-06T03:00:15.000Z,0
2023-02-06T03:01:31.000Z,0
2023-02-06T03:02:48.000Z,0
2023-02-06T03:04:04.000Z,0
2023-02-06T03:05:21.000Z,0
2023-02-06T03:06:37.000Z,0
2023-02-06T03:07:54.000Z,0
2023-02-06T03:09:10.000Z,0
2023-02-06T03:10:27.000Z,0
2023-02-06T03:11:43.000Z,0
2023-02-06T03:12:59.000Z,0
2023-02-06T03:14:15.000Z,0
2023-02-06T03:15:32.000Z,0
2023-02-06T03:16:48.000Z,0
2023-02-06T03:18:05.000Z,0
2023-02-06T03:19:21.000Z,0
2023-02-06T03:20:38.000Z,0
2023-02-06T03:21:54.000Z,0
2023-02-06T03:23:11.000Z,0
2023-02-06T03:24:27.000Z,0
2023-02-06T03:25:44.000Z,0
2023-02-06T03:27:00.000Z,0
2023-02-06T03:28:17.000Z,0
2023-02-06T03:29:33.000Z,0
2023-02-06T03:30:49.000Z,0
2023-02-06T03:32:05.000Z,0
2023-02-06T03:33:22.000Z,0
2023-02-06T03:34:38.000Z,0
2023-02-06T03:35:55.000Z,0
2023-02-06T03:37:11.000Z,0
2023-02-06T03:38:28.000Z,0
2023-02-06T03:39:44.000Z,0
2023-02-06T03:41:01.000Z,0
2023-02-06T03:42:17.000Z,0
2023-02-06T03:43:34.000Z,0
2023-02-06T03:44:50.000Z,0
2023-02-06T03:46:07.000Z,0
2023-02-06T03:47:23.000Z,0
2023-02-06T03:48:40.000Z,0
2023-02-06T03:49:56.000Z,0
2023-02-06T03:51:12.000Z,0
2023-02-06T03:52:28.000Z,0
2023-02-06T03:53:45.000Z,0
2023-02-06T03:55:01.000Z,0
2023-02-06T03:56:18.000Z,0
2023-02-06T03:57:34.000Z,0
2023-02-06T03:58:51.000Z,0
2023-02-06T04:00:07.000Z,0
2023-02-06T04:01:24.000Z,0
2023-02-06T04:02:40.000Z,0
2023-02-06T04:03:57.000Z,0
2023-02-06T04:05:13.000Z,0
2023-02-06T04:06:30.000Z,0
2023-02-06T04:07:46.000Z,0
2023-02-06T04:09:02.000Z,0
2023-02-06T04:10:18.000Z,0
2023-02-06T04:11:35.000Z,0
2023-02-06T04:12:51.000Z,0
2023-02-06T04:15:24.000Z,0
2023-02-06T04:16:41.000Z,0
2023-02-06T04:17:57.000Z,0
2023-02-06T04:19:14.000Z,0
2023-02-06T04:20:30.000Z,0
2023-02-06T04:21:47.000Z,0
2023-02-06T04:23:03.000Z,0
2023-02-06T04:24:20.000Z,0
2023-02-06T04:25:36.000Z,0
2023-02-06T04:26:52.000Z,0
2023-02-06T04:28:08.000Z,0
2023-02-06T04:29:25.000Z,0
2023-02-06T04:30:41.000Z,0
2023-02-06T04:31:58.000Z,0
2023-02-06T04:33:14.000Z,0
2023-02-06T04:34:31.000Z,0
2023-02-06T04:35:47.000Z,0
2023-02-06T04:37:04.000Z,0
2023-02-06T04:38:20.000Z,0
2023-02-06T04:39:37.000Z,0
2023-02-06T04:40:53.000Z,0
2023-02-06T04:42:10.000Z,0
2023-02-06T04:43:26.000Z,0
2023-02-06T04:44:43.000Z,0
2023-02-06T04:45:59.000Z,0
2023-02-06T04:47:16.000Z,0
2023-02-06T04:48:32.000Z,0
2023-02-06T04:49:48.000Z,0
2023-02-06T04:51:04.000Z,0
2023-02-06T04:52:21.000Z,0
2023-02-06T04:53:37.000Z,0
2023-02-06T04:56:10.000Z,0
2023-02-06T04:57:27.000Z,0
2023-02-06T04:58:43.000Z,0
2023-02-06T05:01:16.000Z,0
2023-02-06T05:02:33.000Z,0
2023-02-06T05:03:49.000Z,0
2023-02-06T05:05:06.000Z,0
2023-02-06T05:06:22.000Z,0
2023-02-06T05:07:39.000Z,0
2023-02-06T05:08:55.000Z,0
2023-02-06T05:10:11.000Z,0
2023-02-06T05:11:27.000Z,0
2023-02-06T05:12:44.000Z,0
2023-02-06T05:14:00.000Z,0
2023-02-06T05:15:17.000Z,0
2023-02-06T05:16:33.000Z,0
2023-02-06T05:17:50.000Z,0
2023-02-06T05:19:06.000Z,0
2023-02-06T05:20:23.000Z,0
2023-02-06T05:21:39.000Z,0
2023-02-06T05:22:56.000Z,0
2023-02-06T05:24:12.000Z,0
2023-02-06T05:25:28.000Z,0
2023-02-06T05:26:44.000Z,0
2023-02-06T05:28:01.000Z,0
2023-02-06T05:29:17.000Z,0
2023-02-06T05:30:34.000Z,0
2023-02-06T05:31:50.000Z,0
2023-02-06T05:33:07.000Z,0
2023-02-06T05:34:23.000Z,0
2023-02-06T05:35:40.000Z,0
2023-02-06T05:36:56.000Z,0
2023-02-06T05:38:13.000Z,0
2023-02-06T05:39:29.000Z,0
2023-02-06T05:42:02.000Z,0
2023-02-06T05:43:18.000Z,0
2023-02-06T05:44:34.000Z,0
2023-02-06T05:45:51.000Z,0
2023-02-06T05:47:07.000Z,0
2023-02-06T05:48:24.000Z,0
2023-02-06T05:49:40.000Z,0
2023-02-06T05:50:57.000Z,0
2023-02-06T05:52:13.000Z,0
2023-02-06T05:53:30.000Z,0
2023-02-06T05:54:46.000Z,0
2023-02-06T05:56:03.000Z,0
2023-02-06T05:57:19.000Z,0
2023-02-06T05:58:36.000Z,0
2023-02-06T05:59:52.000Z,0
2023-02-06T06:01:08.000Z,0
2023-02-06T06:02:24.000Z,0
2023-02-06T06:04:57.000Z,0
2023-02-06T06:07:30.000Z,0
2023-02-06T06:08:46.000Z,0
2023-02-06T06:10:02.000Z,0
2023-02-06T06:11:18.000Z,0
2023-02-06T06:12:34.000Z,0
2023-02-06T06:13:50.000Z,0
2023-02-06T06:15:07.000Z,0
2023-02-06T06:16:23.000Z,0
2023-02-06T06:18:56.000Z,0
2023-02-06T06:20:13.000Z,0
2023-02-06T06:21:29.000Z,0
2023-02-06T06:22:46.000Z,0
2023-02-06T06:24:02.000Z,0
2023-02-06T06:25:19.000Z,0
2023-02-06T06:26:35.000Z,0
2023-02-06T06:27:52.000Z,0
2023-02-06T06:29:08.000Z,0
2023-02-06T06:30:25.000Z,0
2023-02-06T06:31:41.000Z,0
2023-02-06T06:32:57.000Z,0
2023-02-06T06:34:13.000Z,0
2023-02-06T06:35:30.000Z,0
2023-02-06T06:36:46.000Z,0
2023-02-06T06:38:02.000Z,0
2023-02-06T06:39:19.000Z,0
2023-02-06T06:40:35.000Z,0
2023-02-06T06:41:51.000Z,0
2023-02-06T06:43:07.000Z,0
2023-02-06T06:45:40.000Z,0
2023-02-06T06:46:57.000Z,0
2023-02-06T06:48:13.000Z,0
2023-02-06T06:49:30.000Z,0
2023-02-06T06:50:46.000Z,0
2023-02-06T06:53:19.000Z,0
2023-02-06T06:54:36.000Z,0
2023-02-06T06:55:52.000Z,0
2023-02-06T06:57:09.000Z,0
2023-02-06T06:58:25.000Z,0
2023-02-06T06:59:41.000Z,0
2023-02-06T07:02:14.000Z,0
2023-02-06T07:03:30.000Z,0
2023-02-06T07:04:46.000Z,0
2023-02-06T07:06:03.000Z,5
2023-02-06T07:07:19.000Z,5
2023-02-06T07:08:36.000Z,5
2023-02-06T07:09:52.000Z,5
2023-02-06T07:11:09.000Z,5
2023-02-06T07:12:25.000Z,5
2023-02-06T07:14:58.000Z,5
2023-02-06T07:16:14.000Z,5
2023-02-06T07:17:30.000Z,11
2023-02-06T07:18:47.000Z,11
2023-02-06T07:20:03.000Z,11
2023-02-06T07:21:19.000Z,11
2023-02-06T07:22:36.000Z,11
2023-02-06T07:23:52.000Z,11
2023-02-06T07:25:08.000Z,11
2023-02-06T07:26:25.000Z,11
2023-02-06T07:27:41.000Z,11
2023-02-06T07:28:58.000Z,11
2023-02-06T07:30:14.000Z,11
2023-02-06T07:31:30.000Z,11
2023-02-06T07:32:47.000Z,11
2023-02-06T07:34:03.000Z,11
2023-02-06T07:35:19.000Z,11
2023-02-06T07:36:35.000Z,11
2023-02-06T07:39:08.000Z,16
2023-02-06T07:40:25.000Z,16
2023-02-06T07:41:41.000Z,11
2023-02-06T07:42:58.000Z,11
2023-02-06T07:44:14.000Z,16
2023-02-06T07:45:31.000Z,16
2023-02-06T07:46:47.000Z,22
2023-02-06T07:48:04.000Z,28
2023-02-06T07:49:20.000Z,28
2023-02-06T07:50:37.000Z,28
2023-02-06T07:51:53.000Z,33
2023-02-06T07:53:10.000Z,39
2023-02-06T07:54:26.000Z,50
2023-02-06T07:55:43.000Z,56
2023-02-06T07:56:59.000Z,56
2023-02-06T07:58:15.000Z,56
2023-02-06T07:59:31.000Z,61
2023-02-06T08:00:47.000Z,61
2023-02-06T08:02:04.000Z,61
2023-02-06T08:03:20.000Z,61
2023-02-06T08:04:37.000Z,56
2023-02-06T08:05:53.000Z,50
2023-02-06T08:07:10.000Z,45
2023-02-06T08:08:26.000Z,39
2023-02-06T08:09:43.000Z,39
2023-02-06T08:10:59.000Z,39
2023-02-06T08:12:15.000Z,45
2023-02-06T08:13:32.000Z,45
2023-02-06T08:14:48.000Z,45
2023-02-06T08:16:05.000Z,50
2023-02-06T08:17:21.000Z,50
2023-02-06T08:18:37.000Z,50
2023-02-06T08:19:54.000Z,50
2023-02-06T08:21:10.000Z,50
2023-02-06T08:22:27.000Z,56
2023-02-06T08:23:43.000Z,56
2023-02-06T08:25:00.000Z,56
2023-02-06T08:26:16.000Z,56
2023-02-06T08:27:32.000Z,61
2023-02-06T08:28:49.000Z,67
2023-02-06T08:31:22.000Z,84
2023-02-06T08:32:38.000Z,78
2023-02-06T08:33:54.000Z,73
2023-02-06T08:35:11.000Z,67
2023-02-06T08:37:44.000Z,61
2023-02-06T08:39:00.000Z,61
2023-02-06T08:40:17.000Z,61
2023-02-06T08:41:33.000Z,67
2023-02-06T08:42:50.000Z,67
2023-02-06T08:44:06.000Z,73
2023-02-06T08:45:22.000Z,78
2023-02-06T08:46:39.000Z,78
2023-02-06T08:47:55.000Z,78
2023-02-06T08:49:12.000Z,78
2023-02-06T08:50:28.000Z,78
2023-02-06T08:51:45.000Z,78
2023-02-06T08:53:01.000Z,78
2023-02-06T08:54:17.000Z,78
2023-02-06T08:55:34.000Z,78
2023-02-06T08:56:50.000Z,78
2023-02-06T08:58:07.000Z,73
2023-02-06T08:59:23.000Z,73
2023-02-06T09:00:39.000Z,73
2023-02-06T09:01:56.000Z,73
2023-02-06T09:03:12.000Z,73
2023-02-06T09:04:29.000Z,78
2023-02-06T09:05:45.000Z,78
2023-02-06T09:07:02.000Z,78
2023-02-06T09:08:18.000Z,84
2023-02-06T09:09:35.000Z,90
2023-02-06T09:10:51.000Z,90
2023-02-06T09:12:08.000Z,90
2023-02-06T09:13:24.000Z,90
2023-02-06T09:14:41.000Z,95
2023-02-06T09:15:57.000Z,90
2023-02-06T09:17:13.000Z,95
2023-02-06T09:18:29.000Z,101
2023-02-06T09:19:46.000Z,101
2023-02-06T09:21:02.000Z,101
2023-02-06T09:23:35.000Z,90
2023-02-06T09:24:52.000Z,84
2023-02-06T09:26:08.000Z,78
2023-02-06T09:27:25.000Z,73
2023-02-06T09:28:41.000Z,67
2023-02-06T09:29:58.000Z,67
2023-02-06T09:32:31.000Z,73
2023-02-06T09:33:47.000Z,73
2023-02-06T09:35:03.000Z,95
2023-02-06T09:36:19.000Z,118
2023-02-06T09:37:36.000Z,135
2023-02-06T09:38:52.000Z,129
2023-02-06T09:40:09.000Z,112
2023-02-06T09:41:25.000Z,90
2023-02-06T09:42:42.000Z,84
2023-02-06T09:43:58.000Z,90
2023-02-06T09:45:15.000Z,95
2023-02-06T09:46:31.000Z,95
2023-02-06T09:47:48.000Z,90
2023-02-06T09:49:04.000Z,101
2023-02-06T09:50:21.000Z,112
2023-02-06T09:51:37.000Z,112
2023-02-06T09:52:53.000Z,118
2023-02-06T09:54:09.000Z,135
2023-02-06T09:55:26.000Z,140
2023-02-06T09:56:42.000Z,129
2023-02-06T09:57:59.000Z,135
2023-02-06T09:59:15.000Z,140
2023-02-06T10:00:32.000Z,123
2023-02-06T10:01:48.000Z,106
2023-02-06T10:03:05.000Z,135
2023-02-06T10:04:21.000Z,146
2023-02-06T10:05:38.000Z,135
2023-02-06T10:06:54.000Z,157
2023-02-06T10:08:11.000Z,157
2023-02-06T10:09:27.000Z,112
2023-02-06T10:10:44.000Z,106
2023-02-06T10:12:00.000Z,101
2023-02-06T10:13:17.000Z,101
2023-02-06T10:15:49.000Z,106
2023-02-06T10:17:05.000Z,101
2023-02-06T10:19:38.000Z,106
2023-02-06T10:20:55.000Z,90
2023-02-06T10:22:11.000Z,90
2023-02-06T10:23:28.000Z,95
2023-02-06T10:24:44.000Z,95
2023-02-06T10:26:01.000Z,95
2023-02-06T10:27:17.000Z,90
2023-02-06T10:28:33.000Z,90
2023-02-06T10:29:49.000Z,90
2023-02-06T10:32:22.000Z,95
2023-02-06T10:33:38.000Z,90
2023-02-06T10:34:54.000Z,106
2023-02-06T10:36:11.000Z,118
2023-02-06T10:37:27.000Z,118
2023-02-06T10:38:43.000Z,112
2023-02-06T10:40:00.000Z,106
2023-02-06T10:41:16.000Z,95
2023-02-06T10:42:33.000Z,90
2023-02-06T10:43:49.000Z,90
2023-02-06T10:45:06.000Z,90
2023-02-06T10:46:22.000Z,95
2023-02-06T10:47:39.000Z,95
2023-02-06T10:48:55.000Z,95
2023-02-06T10:50:12.000Z,95
2023-02-06T10:51:28.000Z,90
2023-02-06T10:52:43.000Z,90
2023-02-06T10:54:00.000Z,95
2023-02-06T10:55:16.000Z,90
2023-02-06T10:56:33.000Z,90
2023-02-06T10:57:49.000Z,101
2023-02-06T10:59:06.000Z,101
2023-02-06T11:00:22.000Z,106
2023-02-06T11:01:39.000Z,90
2023-02-06T11:02:55.000Z,78
2023-02-06T11:04:12.000Z,78
2023-02-06T11:05:28.000Z,78
2023-02-06T11:06:45.000Z,90
2023-02-06T11:08:01.000Z,101
2023-02-06T11:09:18.000Z,101
2023-02-06T11:10:33.000Z,95
2023-02-06T11:13:06.000Z,90
2023-02-06T11:14:23.000Z,90
2023-02-06T11:15:39.000Z,90
2023-02-06T11:16:56.000Z,95
2023-02-06T11:19:29.000Z,90
2023-02-06T11:20:45.000Z,73
2023-02-06T11:22:02.000Z,67
2023-02-06T11:23:18.000Z,61
2023-02-06T11:24:35.000Z,61
2023-02-06T11:25:51.000Z,61
2023-02-06T11:27:08.000Z,67
2023-02-06T11:29:40.000Z,90
2023-02-06T11:30:56.000Z,90
2023-02-06T11:33:29.000Z,123
2023-02-06T11:34:45.000Z,135
2023-02-06T11:36:02.000Z,129
2023-02-06T11:37:17.000Z,112
2023-02-06T11:38:34.000Z,101
2023-02-06T11:41:07.000Z,106
2023-02-06T11:42:23.000Z,123
2023-02-06T11:43:39.000Z,151
2023-02-06T11:44:56.000Z,180
2023-02-06T11:46:12.000Z,174
2023-02-06T11:47:29.000Z,151
2023-02-06T11:48:45.000Z,146
2023-02-06T11:50:01.000Z,140
2023-02-06T11:51:18.000Z,151
2023-02-06T11:52:34.000Z,191
2023-02-06T11:53:51.000Z,225
2023-02-06T11:55:07.000Z,219
2023-02-06T11:56:24.000Z,208
2023-02-06T11:57:40.000Z,163
2023-02-06T11:58:57.000Z,129
2023-02-06T12:00:13.000Z,129
2023-02-06T12:01:30.000Z,135
2023-02-06T12:02:46.000Z,129
2023-02-06T12:04:03.000Z,135
2023-02-06T12:05:19.000Z,157
2023-02-06T12:06:35.000Z,185
2023-02-06T12:07:52.000Z,202
2023-02-06T12:09:07.000Z,219
2023-02-06T12:10:24.000Z,230
2023-02-06T12:11:40.000Z,253
2023-02-06T12:12:57.000Z,258
2023-02-06T12:14:13.000Z,303
2023-02-06T12:15:30.000Z,236
2023-02-06T12:16:46.000Z,168
2023-02-06T12:18:03.000Z,135
2023-02-06T12:19:19.000Z,118
2023-02-06T12:20:36.000Z,106
2023-02-06T12:21:52.000Z,106
2023-02-06T12:23:09.000Z,123
2023-02-06T12:24:25.000Z,151
2023-02-06T12:25:41.000Z,129
2023-02-06T12:26:58.000Z,129
2023-02-06T12:28:14.000Z,135
2023-02-06T12:29:30.000Z,163
2023-02-06T12:30:47.000Z,135
2023-02-06T12:32:03.000Z,174
2023-02-06T12:33:20.000Z,236
2023-02-06T12:34:36.000Z,309
2023-02-06T12:35:53.000Z,303
2023-02-06T12:37:09.000Z,292
2023-02-06T12:38:26.000Z,348
2023-02-06T12:39:42.000Z,298
2023-02-06T12:40:59.000Z,196
2023-02-06T12:42:15.000Z,196
2023-02-06T12:43:31.000Z,168
2023-02-06T12:44:48.000Z,157
2023-02-06T12:46:04.000Z,180
2023-02-06T12:47:20.000Z,140
2023-02-06T12:48:37.000Z,112
2023-02-06T12:49:53.000Z,118
2023-02-06T12:51:10.000Z,101
2023-02-06T12:52:26.000Z,106
2023-02-06T12:53:43.000Z,135
2023-02-06T12:54:59.000Z,180
2023-02-06T12:56:16.000Z,157
2023-02-06T12:57:32.000Z,123
2023-02-06T12:58:48.000Z,95
2023-02-06T13:00:05.000Z,73
2023-02-06T13:01:21.000Z,67
2023-02-06T13:02:38.000Z,84
2023-02-06T13:03:54.000Z,95
2023-02-06T13:05:10.000Z,90
2023-02-06T13:07:43.000Z,112
2023-02-06T13:09:00.000Z,135
2023-02-06T13:10:16.000Z,163
2023-02-06T13:12:49.000Z,258
2023-02-06T13:14:06.000Z,270
2023-02-06T13:15:22.000Z,208
2023-02-06T13:16:38.000Z,180
2023-02-06T13:17:55.000Z,151
2023-02-06T13:19:11.000Z,135
2023-02-06T13:20:27.000Z,180
2023-02-06T13:21:44.000Z,208
2023-02-06T13:23:00.000Z,208
2023-02-06T13:24:17.000Z,180
2023-02-06T13:25:33.000Z,140
2023-02-06T13:26:50.000Z,129
2023-02-06T13:28:06.000Z,101
2023-02-06T13:29:23.000Z,146
2023-02-06T13:30:39.000Z,185
2023-02-06T13:31:55.000Z,168
2023-02-06T13:33:12.000Z,180
2023-02-06T13:34:28.000Z,140
2023-02-06T13:35:45.000Z,135
2023-02-06T13:37:01.000Z,151
2023-02-06T13:38:17.000Z,163
2023-02-06T13:39:34.000Z,202
2023-02-06T13:40:50.000Z,253
2023-02-06T13:42:07.000Z,174
2023-02-06T13:43:23.000Z,151
2023-02-06T13:44:40.000Z,191
2023-02-06T13:45:56.000Z,208
2023-02-06T13:47:13.000Z,230
2023-02-06T13:48:29.000Z,264
2023-02-06T13:49:45.000Z,270
2023-02-06T13:51:02.000Z,196
2023-02-06T13:52:18.000Z,168
2023-02-06T13:53:35.000Z,135
2023-02-06T13:54:51.000Z,140
2023-02-06T13:56:07.000Z,118
2023-02-06T13:57:24.000Z,118
2023-02-06T13:58:40.596Z,129
2023-02-06T13:59:57.000Z,106
2023-02-06T14:01:13.000Z,95
2023-02-06T14:02:30.000Z,146
2023-02-06T14:03:46.000Z,146
2023-02-06T14:05:02.000Z,151
2023-02-06T14:06:19.000Z,140
2023-02-06T14:07:35.000Z,191
2023-02-06T14:08:52.000Z,174
2023-02-06T14:10:08.000Z,163
2023-02-06T14:11:25.000Z,106
2023-02-06T14:12:41.000Z,106
2023-02-06T14:13:57.000Z,140
2023-02-06T14:15:14.000Z,163
2023-02-06T14:16:30.000Z,151
2023-02-06T14:17:47.000Z,129
2023-02-06T14:19:03.000Z,129
2023-02-06T14:20:20.000Z,151
2023-02-06T14:21:36.000Z,146
2023-02-06T14:22:52.000Z,140
2023-02-06T14:25:25.000Z,140
2023-02-06T14:26:42.000Z,151
2023-02-06T14:27:58.000Z,168
2023-02-06T14:29:15.000Z,185
2023-02-06T14:30:31.000Z,163
2023-02-06T14:31:47.000Z,157
2023-02-06T14:33:04.000Z,140
2023-02-06T14:34:20.000Z,118
2023-02-06T14:35:37.000Z,101
2023-02-06T14:36:53.000Z,90
2023-02-06T14:38:09.000Z,101
2023-02-06T14:39:26.000Z,95
2023-02-06T14:40:42.000Z,84
2023-02-06T14:41:59.000Z,78
2023-02-06T14:43:15.000Z,78
2023-02-06T14:44:32.000Z,78
2023-02-06T14:45:48.000Z,84
2023-02-06T14:47:04.000Z,95
2023-02-06T14:48:21.000Z,106
2023-02-06T14:50:54.000Z,101
2023-02-06T14:52:10.000Z,101
2023-02-06T14:53:27.000Z,101
2023-02-06T14:54:43.000Z,106
2023-02-06T14:56:00.000Z,112
2023-02-06T14:57:16.000Z,112
2023-02-06T14:58:32.000Z,106
2023-02-06T14:59:49.000Z,106
2023-02-06T15:01:05.000Z,101
2023-02-06T15:02:22.000Z,101
2023-02-06T15:04:55.000Z,106
2023-02-06T15:06:11.000Z,106
2023-02-06T15:07:28.000Z,101
2023-02-06T15:10:00.000Z,101
2023-02-06T15:11:17.000Z,101
2023-02-06T15:12:32.000Z,101
2023-02-06T15:13:49.000Z,90
2023-02-06T15:15:05.000Z,84
2023-02-06T15:16:22.000Z,84
2023-02-06T15:17:38.000Z,78
2023-02-06T15:20:11.000Z,78
2023-02-06T15:21:28.000Z,78
2023-02-06T15:24:00.000Z,67
2023-02-06T15:25:16.000Z,61
2023-02-06T15:26:33.000Z,61
2023-02-06T15:27:49.000Z,56
2023-02-06T15:29:06.000Z,56
2023-02-06T15:30:22.000Z,56
2023-02-06T15:31:39.000Z,50
2023-02-06T15:32:55.000Z,50
2023-02-06T15:34:11.000Z,50
2023-02-06T15:35:28.000Z,50
2023-02-06T15:36:43.000Z,50
2023-02-06T15:38:00.000Z,50
2023-02-06T15:39:16.000Z,50
2023-02-06T15:40:33.000Z,45
2023-02-06T15:41:49.000Z,45
2023-02-06T15:44:22.000Z,45
2023-02-06T15:46:55.000Z,45
2023-02-06T15:48:12.000Z,39
2023-02-06T15:49:28.000Z,39
2023-02-06T15:50:45.000Z,39
2023-02-06T15:52:01.000Z,39
2023-02-06T15:53:17.000Z,33
2023-02-06T15:54:33.000Z,33
2023-02-06T15:55:50.000Z,33
2023-02-06T15:57:06.000Z,33
2023-02-06T15:58:23.000Z,28
2023-02-06T16:00:56.000Z,28
2023-02-06T16:02:12.000Z,28
2023-02-06T16:03:29.000Z,28
2023-02-06T16:04:45.000Z,22
2023-02-06T16:06:02.000Z,22
2023-02-06T16:07:18.000Z,22
2023-02-06T16:08:35.000Z,22
2023-02-06T16:09:51.000Z,16
2023-02-06T16:11:08.000Z,16
2023-02-06T16:12:24.000Z,16
2023-02-06T16:13:41.000Z,16
2023-02-06T16:14:57.000Z,16
2023-02-06T16:17:30.000Z,11
2023-02-06T16:18:46.000Z,11
2023-02-06T16:20:03.000Z,11
2023-02-06T16:21:19.000Z,11
2023-02-06T16:22:35.000Z,5
2023-02-06T16:23:52.000Z,5
2023-02-06T16:25:08.000Z,5
2023-02-06T16:26:25.000Z,5
2023-02-06T16:27:41.000Z,5
2023-02-06T16:28:58.000Z,5
2023-02-06T16:31:30.000Z,0
2023-02-06T16:32:46.000Z,0
2023-02-06T16:34:03.000Z,0
2023-02-06T16:35:19.000Z,0
2023-02-06T16:36:36.000Z,0
2023-02-06T16:37:52.000Z,0
2023-02-06T16:39:08.000Z,0
2023-02-06T16:40:24.000Z,0
2023-02-06T16:41:41.000Z,0
2023-02-06T16:42:57.000Z,0
2023-02-06T16:44:13.000Z,0
2023-02-06T16:45:30.000Z,0
2023-02-06T16:46:46.000Z,0
2023-02-06T16:48:03.000Z,0
2023-02-06T16:49:19.000Z,0
2023-02-06T16:50:35.000Z,0
2023-02-06T16:51:51.000Z,0
2023-02-06T16:53:08.000Z,0
2023-02-06T16:54:24.000Z,0
2023-02-06T16:56:57.000Z,0
2023-02-06T16:58:14.000Z,0
2023-02-06T16:59:30.000Z,0
2023-02-06T17:00:47.000Z,0
2023-02-06T17:03:20.000Z,0
2023-02-06T17:04:36.000Z,0
2023-02-06T17:05:52.000Z,0
2023-02-06T17:07:09.000Z,0
2023-02-06T17:08:24.000Z,0
2023-02-06T17:09:41.000Z,0
2023-02-06T17:10:57.000Z,0
2023-02-06T17:12:14.000Z,0
2023-02-06T17:13:30.000Z,0
2023-02-06T17:14:47.000Z,0
2023-02-06T17:16:03.000Z,0
2023-02-06T17:17:20.000Z,0
2023-02-06T17:18:35.000Z,0
2023-02-06T17:19:52.000Z,0
2023-02-06T17:21:08.000Z,0
2023-02-06T17:22:24.000Z,0
2023-02-06T17:23:41.000Z,0
2023-02-06T17:24:57.000Z,0
2023-02-06T17:26:14.000Z,0
2023-02-06T17:27:30.000Z,0
2023-02-06T17:28:47.000Z,0
2023-02-06T17:30:03.000Z,0
2023-02-06T17:31:20.000Z,0
2023-02-06T17:32:36.000Z,0
2023-02-06T17:33:53.000Z,0
2023-02-06T17:35:08.000Z,0
2023-02-06T17:36:25.000Z,0
2023-02-06T17:38:58.000Z,0
2023-02-06T17:41:31.000Z,0
2023-02-06T17:42:47.000Z,0
2023-02-06T17:44:03.000Z,0
2023-02-06T17:45:19.000Z,0
2023-02-06T17:46:36.000Z,0
2023-02-06T17:47:52.000Z,0
2023-02-06T17:49:09.000Z,0
2023-02-06T17:50:25.000Z,0
2023-02-06T17:51:42.000Z,0
2023-02-06T17:52:58.000Z,0
2023-02-06T17:54:14.000Z,0
2023-02-06T17:55:31.000Z,0
2023-02-06T17:56:46.000Z,0
2023-02-06T17:58:03.000Z,0
2023-02-06T17:59:19.000Z,0
2023-02-06T18:00:36.000Z,0
2023-02-06T18:01:52.000Z,0
2023-02-06T18:03:09.000Z,0
2023-02-06T18:04:25.000Z,0
2023-02-06T18:05:42.000Z,0
2023-02-06T18:06:58.000Z,0
2023-02-06T18:08:14.000Z,0
2023-02-06T18:09:31.000Z,0
2023-02-06T18:10:46.000Z,0
2023-02-06T18:12:03.000Z,0
2023-02-06T18:13:19.000Z,0
2023-02-06T18:14:36.000Z,0
2023-02-06T18:15:52.000Z,0
2023-02-06T18:17:09.000Z,0
2023-02-06T18:19:42.000Z,0
2023-02-06T18:20:58.000Z,0
2023-02-06T18:22:15.000Z,0
2023-02-06T18:23:31.000Z,0
2023-02-06T18:24:48.000Z,0
2023-02-06T18:26:04.000Z,0
2023-02-06T18:27:20.000Z,0
2023-02-06T18:28:36.000Z,0
2023-02-06T18:29:53.000Z,0
2023-02-06T18:31:09.000Z,0
2023-02-06T18:32:26.000Z,0
2023-02-06T18:33:42.000Z,0
2023-02-06T18:34:59.000Z,0
2023-02-06T18:36:15.000Z,0
2023-02-06T18:37:32.000Z,0
2023-02-06T18:38:48.000Z,0
2023-02-06T18:40:05.000Z,0
2023-02-06T18:41:21.000Z,0
2023-02-06T18:42:38.000Z,0
2023-02-06T18:43:53.000Z,0
2023-02-06T18:45:10.000Z,0
2023-02-06T18:46:26.000Z,0
2023-02-06T18:47:43.000Z,0
2023-02-06T18:48:59.000Z,0
2023-02-06T18:50:16.000Z,0
2023-02-06T18:51:32.000Z,0
2023-02-06T18:52:49.000Z,0
2023-02-06T18:54:05.000Z,0
2023-02-06T18:55:22.000Z,0
2023-02-06T18:57:55.000Z,0
2023-02-06T18:59:11.000Z,0
2023-02-06T19:00:28.000Z,0
2023-02-06T19:01:44.000Z,0
2023-02-06T19:03:01.000Z,0
2023-02-06T19:04:17.000Z,0
2023-02-06T19:05:33.000Z,0
2023-02-06T19:06:49.000Z,0
2023-02-06T19:08:06.000Z,0
2023-02-06T19:09:22.000Z,0
2023-02-06T19:10:39.000Z,0
2023-02-06T19:11:55.000Z,0
2023-02-06T19:13:12.000Z,0
2023-02-06T19:14:28.000Z,0
2023-02-06T19:15:45.000Z,0
2023-02-06T19:17:01.000Z,0
2023-02-06T19:18:18.000Z,0